Time;durP1;ratioP1;P1;durP2;ratioP2;P2;SDS_P1;SDS_P2;PMS_P1;PMS_P2;Temp;Humidity;BMP_temperature;BMP_pressure;BME280_temperature;BME280_humidity;BME280_pressure;Samples;Min_cycle;Max_cycle;Signal;HPM_P1;HPM_P2
2022/06/23 00:01:19;;;;;;;4.72;2.38;;;;;;;;;;5028985;28;20434;-69
2022/06/23 00:03:45;;;;;;;3.45;1.90;;;;;;;;;;5010990;28;20460;-70
2022/06/23 00:06:50;;;;;;;4.15;2.33;;;;;;;;;;5011279;28;20046;-71
2022/06/23 00:09:38;;;;;;;4.75;2.15;;;;;;;;;;5029422;28;20474;-69
2022/06/23 00:12:24;;;;;;;4.95;2.08;;;;;;;;;;5011329;28;20038;-69
2022/06/23 00:15:10;;;;;;;3.30;1.65;;;;;;;;;;5029595;28;20431;-70
2022/06/23 00:17:42;;;;;;;4.28;1.90;;;;;;;;;;5011020;28;20335;-71
2022/06/23 00:20:20;;;;;;;5.03;2.10;;;;;;;;;;5031248;28;20330;-70
2022/06/23 00:22:51;;;;;;;2.25;1.33;;;;;;;;;;5028887;28;20520;-69
2022/06/23 00:25:53;;;;;;;4.43;1.88;;;;;;;;;;5005827;28;20413;-70
2022/06/23 00:28:20;;;;;;;7.03;1.75;;;;;;;;;;5009227;28;20375;-69
2022/06/23 00:30:51;;;;;;;4.70;1.77;;;;;;;;;;4990567;28;20102;-71
2022/06/23 00:33:19;;;;;;;4.18;1.45;;;;;;;;;;5009020;28;20407;-70
2022/06/23 00:35:47;;;;;;;3.45;1.48;;;;;;;;;;5008685;28;20431;-70
2022/06/23 00:38:39;;;;;;;3.10;1.55;;;;;;;;;;4990880;28;20502;-70
2022/06/23 00:41:05;;;;;;;2.53;1.58;;;;;;;;;;4988192;28;20451;-72
2022/06/23 00:43:31;;;;;;;7.68;1.50;;;;;;;;;;5008643;28;20427;-70
2022/06/23 00:46:09;;;;;;;6.55;2.22;;;;;;;;;;4990887;28;20410;-69
2022/06/23 00:48:45;;;;;;;3.22;1.60;;;;;;;;;;5009331;28;20431;-71
2022/06/23 00:51:38;;;;;;;4.47;1.70;;;;;;;;;;4990369;28;20048;-69
2022/06/23 00:54:23;;;;;;;2.25;1.30;;;;;;;;;;4990915;28;20339;-69
2022/06/23 00:57:04;;;;;;;2.95;1.52;;;;;;;;;;5008227;28;20037;-69
2022/06/23 00:59:30;;;;;;;6.70;1.85;;;;;;;;;;5008609;28;20413;-69
2022/06/23 01:02:04;;;;;;;8.25;1.88;;;;;;;;;;4983225;28;20455;-69
2022/06/23 01:04:40;;;;;;;3.17;1.90;;;;;;;;;;4950910;28;20359;-70
2022/06/23 01:07:24;;;;;;;2.80;1.63;;;;;;;;;;4969189;28;20413;-70
2022/06/23 01:10:14;;;;;;;3.17;1.40;;;;;;;;;;4950970;28;20396;-69
2022/06/23 01:12:47;;;;;;;3.03;1.70;;;;;;;;;;4968339;28;20045;-70
2022/06/23 01:15:19;;;;;;;4.40;1.88;;;;;;;;;;4969349;28;20328;-70
2022/06/23 01:17:51;;;;;;;2.33;1.70;;;;;;;;;;4951838;28;20510;-70
2022/06/23 01:20:22;;;;;;;3.95;1.70;;;;;;;;;;4968662;28;20464;-71
2022/06/23 01:22:50;;;;;;;2.85;2.00;;;;;;;;;;4968965;28;20413;-70
2022/06/23 01:25:34;;;;;;;1.60;1.38;;;;;;;;;;4973381;28;20080;-70
2022/06/23 01:28:01;;;;;;;1.98;1.48;;;;;;;;;;4989496;28;20498;-70
2022/06/23 01:30:31;;;;;;;4.78;1.85;;;;;;;;;;4989128;28;20482;-69
2022/06/23 01:33:24;;;;;;;3.60;1.27;;;;;;;;;;4078408;28;10021710;-69
2022/06/23 01:36:02;;;;;;;3.08;1.40;;;;;;;;;;3537393;28;10002053;-69
2022/06/23 01:38:47;;;;;;;2.60;1.53;;;;;;;;;;4967646;28;20335;-69
2022/06/23 01:41:37;;;;;;;4.45;1.77;;;;;;;;;;4968883;28;20044;-70
2022/06/23 01:44:21;;;;;;;2.65;1.27;;;;;;;;;;4951209;28;20452;-69
2022/06/23 01:46:49;;;;;;;1.92;1.27;;;;;;;;;;4968756;28;20428;-70
2022/06/23 01:49:21;;;;;;;2.70;1.45;;;;;;;;;;4950927;28;20516;-69
2022/06/23 01:51:52;;;;;;;3.47;1.45;;;;;;;;;;4967855;28;20377;-70
2022/06/23 01:54:21;;;;;;;2.08;1.50;;;;;;;;;;4951198;28;20108;-69
2022/06/23 01:56:57;;;;;;;1.92;1.02;;;;;;;;;;4968787;28;20471;-71
2022/06/23 01:59:41;;;;;;;1.83;1.20;;;;;;;;;;4951142;28;20432;-70
2022/06/23 02:02:24;;;;;;;3.92;1.17;;;;;;;;;;4969112;28;20357;-70
2022/06/23 02:05:14;;;;;;;1.55;1.20;;;;;;;;;;4972089;28;20448;-70
2022/06/23 02:07:39;;;;;;;2.25;1.20;;;;;;;;;;4954037;28;20436;-69
2022/06/23 02:10:28;;;;;;;1.90;1.38;;;;;;;;;;4972244;28;20340;-69
2022/06/23 02:12:59;;;;;;;2.25;1.40;;;;;;;;;;4954401;28;20482;-69
2022/06/23 02:15:38;;;;;;;2.28;1.30;;;;;;;;;;4954181;28;20460;-72
2022/06/23 02:18:12;;;;;;;2.45;1.33;;;;;;;;;;4954630;28;20979;-70
2022/06/23 02:20:43;;;;;;;3.28;1.50;;;;;;;;;;4971386;28;20507;-69
2022/06/23 02:23:28;;;;;;;2.38;1.17;;;;;;;;;;4954587;28;20380;-70
2022/06/23 02:26:40;;;;;;;2.95;1.33;;;;;;;;;;4953508;28;20041;-70
2022/06/23 02:29:38;;;;;;;1.65;1.08;;;;;;;;;;4941282;28;20357;-70
2022/06/23 02:32:17;;;;;;;1.77;1.23;;;;;;;;;;4971075;28;20429;-70
2022/06/23 02:34:50;;;;;;;3.40;1.30;;;;;;;;;;4953982;28;20472;-70
2022/06/23 02:37:53;;;;;;;2.65;1.30;;;;;;;;;;4971167;28;20132;-70
2022/06/23 02:40:21;;;;;;;2.40;1.30;;;;;;;;;;4953333;28;20447;-70
2022/06/23 02:43:11;;;;;;;1.88;1.15;;;;;;;;;;4971363;28;20057;-70
2022/06/23 02:46:07;;;;;;;2.35;1.10;;;;;;;;;;4972466;28;20030;-70
2022/06/23 02:49:07;;;;;;;1.67;1.13;;;;;;;;;;4971251;28;20324;-70
2022/06/23 02:51:45;;;;;;;3.00;1.38;;;;;;;;;;4903880;28;20322;-70
2022/06/23 02:54:22;;;;;;;3.95;1.17;;;;;;;;;;4971337;28;20297;-70
2022/06/23 02:57:19;;;;;;;3.40;1.10;;;;;;;;;;4971412;28;20432;-70
2022/06/23 02:59:44;;;;;;;1.45;1.02;;;;;;;;;;4971150;28;20416;-69
2022/06/23 03:02:35;;;;;;;2.13;1.42;;;;;;;;;;4971058;28;20029;-72
2022/06/23 03:05:16;;;;;;;3.08;1.50;;;;;;;;;;4970593;28;20432;-70
2022/06/23 03:07:48;;;;;;;1.77;1.13;;;;;;;;;;4953637;28;20025;-71
2022/06/23 03:10:20;;;;;;;2.08;0.95;;;;;;;;;;4971266;28;20436;-69
2022/06/23 03:12:55;;;;;;;2.15;1.23;;;;;;;;;;4969728;28;20460;-69
2022/06/23 03:15:27;;;;;;;2.78;1.38;;;;;;;;;;4953247;28;20392;-70
2022/06/23 03:18:07;;;;;;;4.63;1.73;;;;;;;;;;4936704;28;20361;-71
2022/06/23 03:20:39;;;;;;;2.20;1.17;;;;;;;;;;4970762;28;20436;-69
2022/06/23 03:23:29;;;;;;;1.10;0.95;;;;;;;;;;4953249;28;20484;-70
2022/06/23 03:26:14;;;;;;;1.00;0.90;;;;;;;;;;4970307;28;20522;-69
2022/06/23 03:28:45;;;;;;;1.25;1.00;;;;;;;;;;4952785;28;20368;-71
2022/06/23 03:31:27;;;;;;;3.55;1.02;;;;;;;;;;4952497;28;20336;-70
2022/06/23 03:34:04;;;;;;;1.45;1.10;;;;;;;;;;4979765;28;20375;-70
2022/06/23 03:36:43;;;;;;;1.45;1.02;;;;;;;;;;4989021;28;20339;-70
2022/06/23 03:42:13;;;;;;;1.77;1.15;;;;;;;;;;4974850;28;20494;-70
2022/06/23 03:44:51;;;;;;;3.25;1.35;;;;;;;;;;4989564;28;20356;-69
2022/06/23 03:47:24;;;;;;;1.50;0.87;;;;;;;;;;4988335;28;20489;-69
2022/06/23 03:50:01;;;;;;;1.20;1.10;;;;;;;;;;4988820;28;20609;-70
2022/06/23 03:52:43;;;;;;;2.58;1.23;;;;;;;;;;4988962;28;20352;-69
2022/06/23 03:55:17;;;;;;;2.30;1.10;;;;;;;;;;4988476;28;20427;-69
2022/06/23 03:57:47;;;;;;;1.15;0.98;;;;;;;;;;4988277;28;20522;-69
2022/06/23 04:00:24;;;;;;;1.42;1.00;;;;;;;;;;4988136;28;20415;-69
2022/06/23 04:03:04;;;;;;;2.17;1.38;;;;;;;;;;4990642;28;20486;-71
2022/06/23 04:05:44;;;;;;;3.53;1.73;;;;;;;;;;4987787;28;20413;-70
2022/06/23 04:08:12;;;;;;;2.35;1.23;;;;;;;;;;4989140;28;20460;-69
2022/06/23 04:10:40;;;;;;;2.05;1.23;;;;;;;;;;4971643;28;20024;-69
2022/06/23 04:13:20;;;;;;;1.70;1.05;;;;;;;;;;4988104;28;20232;-70
2022/06/23 04:15:49;;;;;;;2.40;1.23;;;;;;;;;;4971802;28;20426;-70
2022/06/23 04:18:21;;;;;;;1.88;1.20;;;;;;;;;;4988130;28;20051;-69
2022/06/23 04:21:08;;;;;;;2.60;1.40;;;;;;;;;;4988290;28;20482;-71
2022/06/23 04:23:39;;;;;;;2.17;1.33;;;;;;;;;;4988470;28;20475;-72
2022/06/23 04:26:11;;;;;;;1.63;1.20;;;;;;;;;;4970477;28;20514;-69
2022/06/23 04:28:57;;;;;;;2.45;1.00;;;;;;;;;;4988121;28;20041;-69
2022/06/23 04:31:25;;;;;;;2.08;1.30;;;;;;;;;;4988898;28;20341;-70
2022/06/23 04:33:52;;;;;;;1.55;1.20;;;;;;;;;;4989144;28;20440;-70
2022/06/23 04:36:22;;;;;;;2.38;1.33;;;;;;;;;;4988667;28;20400;-69
2022/06/23 04:39:00;;;;;;;1.88;1.20;;;;;;;;;;4971098;28;20033;-69
2022/06/23 04:41:49;;;;;;;1.85;1.27;;;;;;;;;;4989245;28;20361;-70
2022/06/23 04:44:18;;;;;;;2.47;1.20;;;;;;;;;;4987525;28;20428;-70
2022/06/23 04:46:46;;;;;;;3.55;1.55;;;;;;;;;;4987394;28;20352;-69
2022/06/23 04:49:36;;;;;;;2.75;1.70;;;;;;;;;;4989125;28;20409;-69
2022/06/23 04:52:25;;;;;;;2.50;1.13;;;;;;;;;;4974105;28;20355;-70
2022/06/23 04:55:06;;;;;;;3.25;1.50;;;;;;;;;;4991084;28;20441;-69
2022/06/23 04:57:42;;;;;;;2.55;1.55;;;;;;;;;;5009080;28;20412;-69
2022/06/23 05:00:24;;;;;;;3.92;1.33;;;;;;;;;;5009506;28;20382;-69
2022/06/23 05:02:52;;;;;;;4.28;1.55;;;;;;;;;;4973715;28;20481;-69
2022/06/23 05:05:18;;;;;;;8.88;1.42;;;;;;;;;;5008938;28;20424;-69
2022/06/23 05:07:44;;;;;;;5.88;2.03;;;;;;;;;;4990807;28;20352;-69
2022/06/23 05:10:20;;;;;;;3.20;1.92;;;;;;;;;;5009452;28;20358;-69
2022/06/23 05:12:51;;;;;;;3.15;1.80;;;;;;;;;;4990579;28;20497;-69
2022/06/23 05:15:39;;;;;;;5.63;1.33;;;;;;;;;;5008075;28;20098;-68
2022/06/23 05:18:21;;;;;;;3.67;1.88;;;;;;;;;;4988941;28;20455;-69
2022/06/23 05:20:56;;;;;;;2.05;1.17;;;;;;;;;;5010188;28;20063;-69
2022/06/23 05:23:24;;;;;;;10.68;1.98;;;;;;;;;;5008502;28;20424;-69
2022/06/23 05:25:50;;;;;;;;;;;;;;;;;;5007263;28;20397;-69
2022/06/23 05:28:28;;;;;;;2.78;1.40;;;;;;;;;;4990286;28;20277;-70
2022/06/23 05:31:16;;;;;;;2.53;1.30;;;;;;;;;;4990664;28;20313;-69
2022/06/23 05:33:49;;;;;;;2.80;1.70;;;;;;;;;;5008385;28;20347;-68
2022/06/23 05:36:26;;;;;;;2.72;1.63;;;;;;;;;;4991512;28;20055;-68
2022/06/23 05:39:28;;;;;;;2.67;1.38;;;;;;;;;;4994130;28;20435;-69
2022/06/23 05:41:58;;;;;;;3.47;2.15;;;;;;;;;;4963397;28;20455;-69
2022/06/23 05:44:29;;;;;;;2.83;1.60;;;;;;;;;;4994560;28;20020;-69
2022/06/23 05:46:58;;;;;;;4.25;1.75;;;;;;;;;;4993866;28;20343;-69
2022/06/23 05:49:36;;;;;;;2.55;1.60;;;;;;;;;;4994058;28;20419;-69
2022/06/23 05:52:06;;;;;;;5.03;2.30;;;;;;;;;;4994675;28;20363;-69
2022/06/23 05:54:59;;;;;;;4.82;1.63;;;;;;;;;;4975995;28;20295;-70
2022/06/23 05:57:27;;;;;;;2.75;1.52;;;;;;;;;;4993695;28;20482;-68
2022/06/23 06:00:01;;;;;;;3.80;1.55;;;;;;;;;;5012247;28;20381;-68
2022/06/23 06:02:32;;;;;;;1.60;1.35;;;;;;;;;;4993803;28;20370;-69
2022/06/23 06:04:59;;;;;;;2.08;1.38;;;;;;;;;;5013351;28;20463;-68
2022/06/23 06:07:32;;;;;;;4.72;1.27;;;;;;;;;;4994287;28;20036;-69
2022/06/23 06:09:58;;;;;;;1.75;1.45;;;;;;;;;;4993838;28;20427;-69
2022/06/23 06:12:35;;;;;;;2.95;1.75;;;;;;;;;;4993759;28;20368;-69
2022/06/23 06:15:05;;;;;;;1.87;1.30;;;;;;;;;;5011313;28;20473;-69
2022/06/23 06:17:33;;;;;;;4.53;1.80;;;;;;;;;;4993703;28;20443;-68
2022/06/23 06:20:03;;;;;;;2.70;1.40;;;;;;;;;;4993499;28;20415;-69
2022/06/23 06:22:40;;;;;;;2.90;1.70;;;;;;;;;;4993343;28;20344;-69
2022/06/23 06:25:07;;;;;;;1.90;1.20;;;;;;;;;;4993130;28;20396;-70
2022/06/23 06:27:33;;;;;;;3.15;1.52;;;;;;;;;;4992974;28;20510;-68
2022/06/23 06:29:59;;;;;;;3.08;1.70;;;;;;;;;;5012029;28;20105;-68
2022/06/23 06:32:27;;;;;;;4.78;1.75;;;;;;;;;;4992979;28;20409;-68
2022/06/23 06:35:28;;;;;;;3.60;1.65;;;;;;;;;;5010731;28;20447;-68
2022/06/23 06:38:15;;;;;;;3.17;1.55;;;;;;;;;;5011440;28;20435;-68
2022/06/23 06:40:43;;;;;;;2.92;1.58;;;;;;;;;;4992346;28;20512;-69
2022/06/23 06:43:12;;;;;;;3.20;1.45;;;;;;;;;;4977362;28;20385;-68
2022/06/23 06:45:38;;;;;;;2.92;1.67;;;;;;;;;;5010889;28;20455;-69
2022/06/23 06:48:09;;;;;;;2.22;1.33;;;;;;;;;;4992270;28;20432;-68
2022/06/23 06:50:42;;;;;;;2.42;1.30;;;;;;;;;;5010739;28;20342;-69
2022/06/23 06:53:15;;;;;;;2.88;1.65;;;;;;;;;;5011164;28;20448;-68
2022/06/23 06:55:45;;;;;;;2.63;1.52;;;;;;;;;;4993146;28;20328;-68
2022/06/23 06:58:18;;;;;;;4.07;1.63;;;;;;;;;;4992439;28;20455;-68
2022/06/23 07:00:56;;;;;;;3.08;1.55;;;;;;;;;;5010188;28;20021;-69
2022/06/23 07:03:23;;;;;;;2.90;1.50;;;;;;;;;;4992605;28;20388;-68
2022/06/23 07:05:57;;;;;;;5.75;1.60;;;;;;;;;;4992650;28;20483;-69
2022/06/23 07:08:39;;;;;;;8.38;2.15;;;;;;;;;;5010218;28;20530;-68
2022/06/23 07:11:30;;;;;;;3.30;1.35;;;;;;;;;;4992107;28;20432;-69
2022/06/23 07:14:07;;;;;;;2.65;1.40;;;;;;;;;;4992426;28;20043;-68
2022/06/23 07:16:55;;;;;;;3.45;1.33;;;;;;;;;;4991274;28;20424;-68
2022/06/23 07:19:42;;;;;;;1.80;1.40;;;;;;;;;;4648595;28;10001836;-68
2022/06/23 07:22:17;;;;;;;1.63;1.02;;;;;;;;;;5010115;28;20033;-68
2022/06/23 07:24:58;;;;;;;2.50;1.30;;;;;;;;;;4992569;28;20505;-68
2022/06/23 07:27:29;;;;;;;1.60;1.10;;;;;;;;;;4973218;28;20388;-68
2022/06/23 07:30:03;;;;;;;2.17;1.25;;;;;;;;;;4991171;28;20317;-68
2022/06/23 07:32:37;;;;;;;2.10;1.30;;;;;;;;;;4990039;28;20451;-68
2022/06/23 07:35:12;;;;;;;1.27;1.15;;;;;;;;;;4973070;28;20494;-68
2022/06/23 07:37:56;;;;;;;2.38;1.42;;;;;;;;;;4990785;28;20339;-68
2022/06/23 07:40:23;;;;;;;3.60;1.10;;;;;;;;;;4971881;28;20118;-68
2022/06/23 07:43:00;;;;;;;1.92;1.05;;;;;;;;;;4972335;28;20500;-68
2022/06/23 07:45:49;;;;;;;1.52;1.20;;;;;;;;;;4991220;28;20345;-68
2022/06/23 07:48:14;;;;;;;2.33;1.30;;;;;;;;;;4990133;28;20408;-67
2022/06/23 07:50:40;;;;;;;3.38;1.02;;;;;;;;;;4990566;28;20393;-67
2022/06/23 07:53:06;;;;;;;1.45;1.10;;;;;;;;;;4989730;28;20032;-67
2022/06/23 07:55:39;;;;;;;1.42;1.10;;;;;;;;;;4989510;28;20340;-68
2022/06/23 07:58:06;;;;;;;1.40;1.00;;;;;;;;;;4971749;28;20428;-68
2022/06/23 08:00:37;;;;;;;1.75;1.30;;;;;;;;;;4972766;28;20466;-69
2022/06/23 08:03:12;;;;;;;2.88;1.13;;;;;;;;;;4971970;28;20498;-68
2022/06/23 08:05:51;;;;;;;2.50;1.00;;;;;;;;;;4989236;28;20404;-68
2022/06/23 08:08:19;;;;;;;;;;;;;;;;;;4973033;28;20029;-68
2022/06/23 08:10:46;;;;;;;1.70;1.00;;;;;;;;;;4972316;28;19994;-68
2022/06/23 08:13:18;;;;;;;2.42;1.30;;;;;;;;;;4971654;28;20687;-68
2022/06/23 08:18:36;;;;;;;2.47;0.90;;;;;;;;;;4975457;28;20451;-67
2022/06/23 08:21:04;;;;;;;1.95;1.10;;;;;;;;;;4971253;28;20152;-68
2022/06/23 08:23:34;;;;;;;3.00;1.20;;;;;;;;;;4971388;28;20332;-68
2022/06/23 08:26:00;;;;;;;3.33;1.10;;;;;;;;;;4998239;28;20352;-68
2022/06/23 08:28:26;;;;;;;3.85;1.10;;;;;;;;;;4990948;28;20439;-68
2022/06/23 08:30:53;;;;;;;2.67;1.17;;;;;;;;;;4991984;28;20398;-67
2022/06/23 08:33:19;;;;;;;4.00;1.25;;;;;;;;;;5009584;28;20343;-67
2022/06/23 08:35:47;;;;;;;1.13;0.75;;;;;;;;;;4990685;28;20509;-67
2022/06/23 08:38:21;;;;;;;1.08;0.90;;;;;;;;;;5009051;28;20358;-68
2022/06/23 08:41:20;;;;;;;3.25;1.08;;;;;;;;;;4991239;28;20442;-67
2022/06/23 08:44:04;;;;;;;1.63;1.00;;;;;;;;;;5008902;28;20111;-68
2022/06/23 08:46:45;;;;;;;1.40;1.20;;;;;;;;;;5008822;28;20323;-68
2022/06/23 08:49:37;;;;;;;2.20;1.13;;;;;;;;;;4990867;28;20469;-67
2022/06/23 08:52:14;;;;;;;2.30;1.00;;;;;;;;;;4989525;28;20466;-67
2022/06/23 08:55:04;;;;;;;2.15;1.02;;;;;;;;;;4991249;28;20377;-67
2022/06/23 08:57:54;;;;;;;1.75;0.80;;;;;;;;;;5008548;28;20382;-68
2022/06/23 09:00:35;;;;;;;3.38;1.00;;;;;;;;;;5008387;28;20321;-68
2022/06/23 09:03:16;;;;;;;1.20;0.85;;;;;;;;;;4990749;28;20344;-68
2022/06/23 09:05:50;;;;;;;1.98;1.10;;;;;;;;;;5008917;28;20443;-68
2022/06/23 09:08:18;;;;;;;3.38;1.20;;;;;;;;;;4990569;28;20431;-67
2022/06/23 09:11:01;;;;;;;1.13;0.93;;;;;;;;;;5008952;28;20362;-67
2022/06/23 09:13:45;;;;;;;1.85;1.38;;;;;;;;;;4994448;28;20446;-67
2022/06/23 09:16:29;;;;;;;1.33;1.23;;;;;;;;;;5012823;28;20343;-67
2022/06/23 09:19:15;;;;;;;1.60;0.85;;;;;;;;;;5013049;28;20059;-68
2022/06/23 09:22:03;;;;;;;1.10;0.93;;;;;;;;;;5013233;28;20423;-67
2022/06/23 09:24:37;;;;;;;2.25;1.10;;;;;;;;;;5012562;28;20033;-67
2022/06/23 09:27:14;;;;;;;2.75;0.80;;;;;;;;;;5013338;28;20470;-67
2022/06/23 09:29:51;;;;;;;1.75;1.10;;;;;;;;;;5012918;28;20435;-67
2022/06/23 09:32:42;;;;;;;2.13;0.90;;;;;;;;;;5012320;28;20055;-68
2022/06/23 09:35:30;;;;;;;1.45;1.00;;;;;;;;;;5012069;28;20494;-67
2022/06/23 09:38:24;;;;;;;3.60;0.95;;;;;;;;;;5012337;28;20033;-67
2022/06/23 09:41:17;;;;;;;1.83;1.10;;;;;;;;;;4994259;28;20029;-68
2022/06/23 09:44:07;;;;;;;2.95;1.70;;;;;;;;;;5011009;28;20456;-67
2022/06/23 09:46:44;;;;;;;1.42;0.82;;;;;;;;;;5011788;28;20443;-67
2022/06/23 09:49:47;;;;;;;1.13;1.00;;;;;;;;;;5011607;28;20368;-67
2022/06/23 09:52:33;;;;;;;0.88;0.77;;;;;;;;;;5011897;28;20537;-67
2022/06/23 09:54:59;;;;;;;2.75;1.00;;;;;;;;;;5010218;28;20438;-68
2022/06/23 09:57:33;;;;;;;1.30;1.00;;;;;;;;;;5011507;28;20328;-67
2022/06/23 09:59:58;;;;;;;1.63;0.93;;;;;;;;;;5011712;28;20032;-68
2022/06/23 10:02:42;;;;;;;2.67;1.02;;;;;;;;;;5011588;28;20047;-69
2022/06/23 10:05:26;;;;;;;1.60;1.00;;;;;;;;;;5011628;28;20515;-68
2022/06/23 10:07:51;;;;;;;2.75;0.88;;;;;;;;;;5012670;28;20419;-68
2022/06/23 10:10:35;;;;;;;1.05;0.95;;;;;;;;;;5011705;28;20394;-71
2022/06/23 10:13:10;;;;;;;1.25;0.80;;;;;;;;;;5011236;28;20063;-68
2022/06/23 10:15:45;;;;;;;1.38;0.93;;;;;;;;;;5010009;28;20460;-69
2022/06/23 10:18:28;;;;;;;1.30;0.82;;;;;;;;;;5011761;28;20461;-68
2022/06/23 10:21:17;;;;;;;5.70;1.65;;;;;;;;;;5011185;28;20435;-68
2022/06/23 10:24:06;;;;;;;1.35;0.77;;;;;;;;;;4992836;28;20443;-68
2022/06/23 10:26:47;;;;;;;1.88;0.88;;;;;;;;;;4989370;28;20364;-70
2022/06/23 10:29:22;;;;;;;1.90;1.00;;;;;;;;;;5010886;28;20111;-69
2022/06/23 10:32:17;;;;;;;1.23;0.80;;;;;;;;;;4993456;28;20032;-68
2022/06/23 10:35:28;;;;;;;0.80;0.80;;;;;;;;;;4993309;28;20024;-68
2022/06/23 10:38:12;;;;;;;0.88;0.80;;;;;;;;;;5009604;28;20455;-68
2022/06/23 10:40:52;;;;;;;1.65;0.90;;;;;;;;;;5011529;28;20423;-68
2022/06/23 10:43:48;;;;;;;1.48;0.90;;;;;;;;;;5011135;28;20443;-69
2022/06/23 10:46:36;;;;;;;1.63;0.90;;;;;;;;;;4993214;28;20331;-68
2022/06/23 10:49:17;;;;;;;;;;;;;;;;;;5011376;28;20526;-69
2022/06/23 10:52:06;;;;;;;3.40;0.98;;;;;;;;;;5011810;28;20284;-69
2022/06/23 10:54:52;;;;;;;1.52;1.10;;;;;;;;;;5011201;28;20447;-68
2022/06/23 10:57:53;;;;;;;1.65;0.80;;;;;;;;;;5010641;28;20344;-69
2022/06/23 11:00:39;;;;;;;1.50;0.80;;;;;;;;;;4996280;28;20486;-69
2022/06/23 11:03:34;;;;;;;0.80;0.70;;;;;;;;;;5010670;28;20358;-68
2022/06/23 11:06:18;;;;;;;1.58;0.82;;;;;;;;;;5010264;28;20050;-69
2022/06/23 11:09:11;;;;;;;1.77;0.80;;;;;;;;;;5010328;28;20446;-69
2022/06/23 11:11:52;;;;;;;1.10;0.70;;;;;;;;;;4983262;28;20486;-69
2022/06/23 11:14:45;;;;;;;2.78;0.70;;;;;;;;;;5010663;28;20467;-69
2022/06/23 11:17:34;;;;;;;0.70;0.70;;;;;;;;;;5010626;28;20501;-69
2022/06/23 11:20:21;;;;;;;1.88;0.70;;;;;;;;;;4985612;28;20052;-69
2022/06/23 11:23:12;;;;;;;1.00;0.70;;;;;;;;;;4992753;28;20427;-69
2022/06/23 11:25:41;;;;;;;3.53;0.60;;;;;;;;;;5009825;28;20517;-69
2022/06/23 11:28:55;;;;;;;1.17;0.80;;;;;;;;;;5009632;28;20467;-70
2022/06/23 11:31:28;;;;;;;1.13;0.50;;;;;;;;;;4968274;28;20040;-68
2022/06/23 11:33:58;;;;;;;1.65;0.60;;;;;;;;;;5009441;28;20021;-69
2022/06/23 11:36:46;;;;;;;2.05;0.90;;;;;;;;;;5010614;28;20032;-69
2022/06/23 11:39:21;;;;;;;1.27;0.75;;;;;;;;;;5009422;28;20398;-69
2022/06/23 11:41:54;;;;;;;1.88;0.73;;;;;;;;;;5009996;28;20055;-69
2022/06/23 11:44:42;;;;;;;1.48;0.85;;;;;;;;;;4992230;28;20021;-69
2022/06/23 11:47:22;;;;;;;1.20;0.60;;;;;;;;;;5009718;28;20451;-70
2022/06/23 11:50:26;;;;;;;2.30;0.90;;;;;;;;;;4992173;28;20419;-69
2022/06/23 11:53:17;;;;;;;1.05;0.80;;;;;;;;;;4987481;28;20410;-70
2022/06/23 11:56:15;;;;;;;2.53;0.90;;;;;;;;;;5009519;28;20535;-70
2022/06/23 11:59:06;;;;;;;0.98;0.90;;;;;;;;;;4983323;28;20486;-69
2022/06/23 12:01:31;;;;;;;3.55;0.70;;;;;;;;;;4991502;28;20555;-70
2022/06/23 12:04:15;;;;;;;1.23;0.60;;;;;;;;;;4991348;28;20464;-70
2022/06/23 12:06:56;;;;;;;1.40;0.60;;;;;;;;;;5009518;28;20522;-69
2022/06/23 12:09:43;;;;;;;1.13;0.70;;;;;;;;;;5009388;28;20462;-69
2022/06/23 12:12:08;;;;;;;0.90;0.63;;;;;;;;;;5007680;28;20438;-68
2022/06/23 12:14:35;;;;;;;1.05;0.70;;;;;;;;;;5009661;28;20405;-69
2022/06/23 12:17:24;;;;;;;0.68;0.60;;;;;;;;;;4991090;28;20028;-69
2022/06/23 12:19:53;;;;;;;3.97;0.73;;;;;;;;;;4991518;28;20427;-70
2022/06/23 12:22:32;;;;;;;;;;;;;;;;;;5009702;28;20360;-69
2022/06/23 12:25:08;;;;;;;1.35;0.70;;;;;;;;;;5007398;28;19920;-69
2022/06/23 12:27:50;;;;;;;2.90;0.95;;;;;;;;;;5008838;28;20343;-69
2022/06/23 12:30:18;;;;;;;2.60;0.80;;;;;;;;;;5009153;28;20427;-68
2022/06/23 12:33:01;;;;;;;1.33;0.73;;;;;;;;;;4990839;28;20416;-68
2022/06/23 12:35:52;;;;;;;1.05;0.65;;;;;;;;;;4992236;28;20087;-69
2022/06/23 12:38:33;;;;;;;1.30;0.80;;;;;;;;;;4988316;28;20328;-69
2022/06/23 12:41:08;;;;;;;1.70;0.80;;;;;;;;;;5009141;28;20032;-69
2022/06/23 12:43:40;;;;;;;1.67;0.75;;;;;;;;;;4991596;28;20517;-68
2022/06/23 12:46:07;;;;;;;1.30;0.95;;;;;;;;;;5008283;28;20496;-70
2022/06/23 12:48:44;;;;;;;1.00;0.90;;;;;;;;;;4990776;28;20347;-68
2022/06/23 12:51:19;;;;;;;1.77;0.90;;;;;;;;;;5008611;28;20399;-69
2022/06/23 12:54:04;;;;;;;1.42;0.68;;;;;;;;;;5009262;28;20538;-68
2022/06/23 12:56:41;;;;;;;0.80;0.57;;;;;;;;;;5008720;28;20462;-68
2022/06/23 12:59:17;;;;;;;1.57;0.80;;;;;;;;;;5009843;28;20158;-68
2022/06/23 13:01:46;;;;;;;1.00;0.70;;;;;;;;;;4990994;28;20744;-69
2022/06/23 13:04:40;;;;;;;2.03;0.85;;;;;;;;;;4990665;28;20129;-68
2022/06/23 13:07:08;;;;;;;0.90;0.85;;;;;;;;;;5008896;28;20320;-68
2022/06/23 13:09:42;;;;;;;;;;;;;;;;;;5009112;28;20021;-68
2022/06/23 13:12:15;;;;;;;2.65;1.00;;;;;;;;;;5007105;28;20279;-68
2022/06/23 13:14:49;;;;;;;1.00;0.55;;;;;;;;;;4990555;28;20063;-69
2022/06/23 13:17:34;;;;;;;1.48;1.02;;;;;;;;;;5007132;28;20331;-68
2022/06/23 13:20:07;;;;;;;1.58;0.93;;;;;;;;;;5008391;28;20056;-68
2022/06/23 13:22:49;;;;;;;2.33;0.90;;;;;;;;;;5008564;28;20055;-68
2022/06/23 13:25:18;;;;;;;2.00;0.70;;;;;;;;;;4989886;28;20533;-68
2022/06/23 13:27:45;;;;;;;;;;;;;;;;;;4990640;28;20048;-68
2022/06/23 13:30:14;;;;;;;1.15;0.82;;;;;;;;;;5007146;28;20389;-67
2022/06/23 13:32:48;;;;;;;1.02;0.70;;;;;;;;;;5010226;28;20404;-68
2022/06/23 13:35:17;;;;;;;0.98;0.70;;;;;;;;;;4990743;28;20454;-68
2022/06/23 13:37:53;;;;;;;2.17;0.95;;;;;;;;;;4990358;28;20358;-69
2022/06/23 13:40:34;;;;;;;2.35;1.00;;;;;;;;;;4990576;28;20417;-68
2022/06/23 13:43:45;;;;;;;1.52;0.90;;;;;;;;;;5008584;28;20332;-68
2022/06/23 13:46:32;;;;;;;2.72;0.95;;;;;;;;;;4990250;28;20350;-68
2022/06/23 13:49:05;;;;;;;0.95;0.85;;;;;;;;;;4991262;28;20454;-67
2022/06/23 13:51:53;;;;;;;2.83;1.10;;;;;;;;;;5008603;28;20410;-67
2022/06/23 13:54:37;;;;;;;0.83;0.63;;;;;;;;;;4991241;28;20391;-68
2022/06/23 13:57:24;;;;;;;1.27;1.02;;;;;;;;;;4991779;28;20348;-68
2022/06/23 13:59:55;;;;;;;1.00;0.73;;;;;;;;;;4993834;28;20359;-68
2022/06/23 14:02:30;;;;;;;2.33;1.00;;;;;;;;;;4994603;28;20355;-68
2022/06/23 14:05:00;;;;;;;1.92;0.82;;;;;;;;;;5011989;28;20359;-67
2022/06/23 14:07:32;;;;;;;0.90;0.80;;;;;;;;;;5011743;28;20343;-69
2022/06/23 14:10:03;;;;;;;0.80;0.80;;;;;;;;;;5011266;28;20107;-68
2022/06/23 14:12:38;;;;;;;1.83;0.98;;;;;;;;;;4994599;28;20028;-68
2022/06/23 14:15:22;;;;;;;3.80;0.90;;;;;;;;;;5012060;28;20025;-68
2022/06/23 14:17:59;;;;;;;1.75;1.10;;;;;;;;;;5011401;28;20399;-68
2022/06/23 14:20:30;;;;;;;1.35;0.90;;;;;;;;;;4993779;28;20447;-68
2022/06/23 14:23:00;;;;;;;1.10;0.90;;;;;;;;;;5012469;28;20331;-70
2022/06/23 14:25:36;;;;;;;2.03;1.00;;;;;;;;;;4993600;28;20379;-68
2022/06/23 14:28:15;;;;;;;2.83;0.80;;;;;;;;;;4993524;28;20028;-68
2022/06/23 14:30:47;;;;;;;1.00;0.70;;;;;;;;;;4992993;28;20518;-69
2022/06/23 14:33:35;;;;;;;1.08;0.90;;;;;;;;;;4993371;28;20423;-69
2022/06/23 14:36:08;;;;;;;1.73;1.00;;;;;;;;;;4992977;28;20547;-68
2022/06/23 14:38:54;;;;;;;1.10;0.90;;;;;;;;;;5011027;28;20450;-69
2022/06/23 14:41:32;;;;;;;2.95;1.05;;;;;;;;;;5010559;28;20469;-68
2022/06/23 14:44:25;;;;;;;1.17;0.90;;;;;;;;;;4992973;28;20376;-68
2022/06/23 14:46:54;;;;;;;2.10;1.00;;;;;;;;;;5011061;28;20566;-68
2022/06/23 14:49:41;;;;;;;2.05;1.05;;;;;;;;;;4993242;28;20424;-68
2022/06/23 14:52:17;;;;;;;1.80;0.90;;;;;;;;;;5010786;28;20731;-67
2022/06/23 14:54:42;;;;;;;1.17;1.00;;;;;;;;;;4993893;28;20395;-68
2022/06/23 14:57:38;;;;;;;7.53;1.35;;;;;;;;;;5010548;28;20341;-68
2022/06/23 15:00:35;;;;;;;1.50;1.00;;;;;;;;;;5010828;28;20484;-68
2022/06/23 15:03:27;;;;;;;1.42;1.00;;;;;;;;;;4990197;28;20340;-69
2022/06/23 15:06:03;;;;;;;4.53;1.00;;;;;;;;;;4992327;28;20064;-68
2022/06/23 15:08:31;;;;;;;1.30;0.90;;;;;;;;;;4992588;28;20089;-68
2022/06/23 15:11:21;;;;;;;2.35;0.77;;;;;;;;;;5010924;28;20033;-68
2022/06/23 15:13:54;;;;;;;1.05;0.85;;;;;;;;;;5010317;28;20359;-68
2022/06/23 15:16:45;;;;;;;2.17;0.90;;;;;;;;;;4993101;28;20378;-68
2022/06/23 15:19:13;;;;;;;0.80;0.63;;;;;;;;;;5010028;28;20510;-69
2022/06/23 15:24:45;;;;;;;1.10;0.85;;;;;;;;;;5010330;28;20055;-68
2022/06/23 15:27:19;;;;;;;1.27;1.17;;;;;;;;;;5008394;28;20410;-68
2022/06/23 15:29:52;;;;;;;1.10;0.90;;;;;;;;;;5010531;28;20450;-68
2022/06/23 15:32:38;;;;;;;1.38;0.93;;;;;;;;;;4991875;28;20455;-68
2022/06/23 15:35:06;;;;;;;1.77;1.05;;;;;;;;;;4992189;28;20364;-68
2022/06/23 15:37:44;;;;;;;1.77;0.90;;;;;;;;;;5011117;28;20029;-68
2022/06/23 15:40:34;;;;;;;1.48;0.82;;;;;;;;;;4992056;28;20047;-69
2022/06/23 15:43:06;;;;;;;1.20;0.90;;;;;;;;;;5010249;28;20447;-69
2022/06/23 15:45:47;;;;;;;1.27;0.73;;;;;;;;;;4991996;28;20131;-69
2022/06/23 15:48:34;;;;;;;1.70;0.90;;;;;;;;;;5009469;28;20455;-69
2022/06/23 15:51:03;;;;;;;2.03;0.95;;;;;;;;;;5010411;28;20446;-68
2022/06/23 15:53:40;;;;;;;1.83;0.80;;;;;;;;;;4991469;28;20032;-69
2022/06/23 15:56:10;;;;;;;1.90;0.70;;;;;;;;;;5009645;28;20043;-69
2022/06/23 15:58:56;;;;;;;1.13;0.80;;;;;;;;;;5009606;28;20431;-68
2022/06/23 16:01:42;;;;;;;1.17;0.98;;;;;;;;;;4991234;28;20488;-68